Time;durP1;ratioP1;P1;durP2;ratioP2;P2;SDS_P1;SDS_P2;PMS_P1;PMS_P2;Temp;Humidity;BMP_temperature;BMP_pressure;BME280_temperature;BME280_humidity;BME280_pressure;Samples;Min_cycle;Max_cycle;Signal;HPM_P1;HPM_P2
2021/12/03 00:01:32;;;;;;;54.33;39.10;;;8.40;94.50;;;;;;4957300;28;20672;-70
2021/12/03 00:04:00;;;;;;;50.40;38.00;;;8.50;94.50;;;;;;4956878;28;20565;-70
2021/12/03 00:06:27;;;;;;;56.77;40.77;;;8.50;94.40;;;;;;4948763;29;20275;-70
2021/12/03 00:08:54;;;;;;;56.87;38.80;;;8.50;94.40;;;;;;4957956;28;20598;-70
2021/12/03 00:11:22;;;;;;;50.73;37.67;;;8.60;94.40;;;;;;4956654;29;20236;-70
2021/12/03 00:13:49;;;;;;;55.20;39.60;;;8.50;94.30;;;;;;4957022;29;20280;-70
2021/12/03 00:16:17;;;;;;;53.80;38.03;;;8.50;94.20;;;;;;4956576;29;20229;-70
2021/12/03 00:18:45;;;;;;;55.63;38.17;;;8.50;94.10;;;;;;4954180;29;20218;-69
2021/12/03 00:21:13;;;;;;;55.60;38.30;;;8.60;94.00;;;;;;4957227;28;20248;-69
2021/12/03 00:23:40;;;;;;;54.67;38.07;;;8.60;93.90;;;;;;4953509;29;20687;-69
2021/12/03 00:26:09;;;;;;;48.43;33.77;;;8.50;93.90;;;;;;4954340;29;20202;-69
2021/12/03 00:28:37;;;;;;;48.57;32.77;;;8.50;93.90;;;;;;4964342;28;20221;-69
2021/12/03 00:31:05;;;;;;;47.03;31.07;;;8.50;93.90;;;;;;4953549;29;20224;-69
2021/12/03 00:33:35;;;;;;;44.10;29.30;;;8.40;93.90;;;;;;4956526;28;20546;-69
2021/12/03 00:36:06;;;;;;;38.90;28.23;;;8.40;94.00;;;;;;4955510;29;20220;-69
2021/12/03 00:38:40;;;;;;;43.27;26.47;;;8.30;94.10;;;;;;4970705;28;20296;-69
2021/12/03 00:41:12;;;;;;;37.87;23.53;;;8.30;94.20;;;;;;4953971;28;20237;-69
2021/12/03 00:43:44;;;;;;;33.80;23.00;;;8.30;94.30;;;;;;4971199;28;20229;-69
2021/12/03 00:46:16;;;;;;;33.80;21.60;;;8.30;94.40;;;;;;4954387;29;20202;-69
2021/12/03 00:48:45;;;;;;;28.30;21.07;;;8.30;94.40;;;;;;4957105;29;20216;-69
2021/12/03 00:51:18;;;;;;;24.73;18.47;;;8.30;94.40;;;;;;4956751;28;20210;-69
2021/12/03 00:53:46;;;;;;;29.23;19.93;;;8.40;94.40;;;;;;4956744;29;20213;-69
2021/12/03 00:56:14;;;;;;;30.57;21.77;;;8.40;94.40;;;;;;4956621;28;20217;-69
2021/12/03 00:58:42;;;;;;;27.97;18.50;;;8.40;94.50;;;;;;4956937;28;20221;-69
2021/12/03 01:01:09;;;;;;;27.03;19.10;;;8.40;94.40;;;;;;4954021;28;20210;-69
2021/12/03 01:03:38;;;;;;;25.77;18.97;;;8.40;94.40;;;;;;4955644;29;20296;-69
2021/12/03 01:06:06;;;;;;;23.40;16.97;;;8.50;94.40;;;;;;4955596;28;20360;-69
2021/12/03 01:08:36;;;;;;;27.67;18.23;;;8.50;94.30;;;;;;4956824;28;20205;-69
2021/12/03 01:11:07;;;;;;;26.67;18.13;;;8.50;94.20;;;;;;4956369;28;20232;-69
2021/12/03 01:13:36;;;;;;;23.47;17.90;;;8.60;94.20;;;;;;4956722;28;20238;-69
2021/12/03 01:16:04;;;;;;;24.43;16.83;;;8.60;94.10;;;;;;4956247;28;20240;-69
2021/12/03 01:18:32;;;;;;;26.57;17.67;;;8.60;94.10;;;;;;4954131;29;20212;-69
2021/12/03 01:21:00;;;;;;;24.97;17.57;;;8.50;94.10;;;;;;4953056;29;20246;-69
2021/12/03 01:24:54;;;;;;;25.23;17.30;;;8.60;94.10;;;;;;4956893;29;20313;-69
2021/12/03 01:27:23;;;;;;;24.00;16.50;;;8.60;94.00;;;;;;4955565;28;20206;-69
2021/12/03 01:29:50;;;;;;;25.13;15.80;;;8.60;94.10;;;;;;4954669;28;20292;-69
2021/12/03 01:32:17;;;;;;;18.80;13.57;;;8.50;94.00;;;;;;4955598;29;20198;-69
2021/12/03 01:34:45;;;;;;;21.17;14.23;;;8.50;93.90;;;;;;4956132;28;20289;-69
2021/12/03 01:37:12;;;;;;;20.83;12.33;;;8.50;93.90;;;;;;4956111;28;20284;-69
2021/12/03 01:39:39;;;;;;;12.33;9.47;;;8.50;93.90;;;;;;4954661;28;20202;-69
2021/12/03 01:42:06;;;;;;;12.67;9.03;;;8.50;93.90;;;;;;4955554;28;20296;-69
2021/12/03 01:44:34;;;;;;;10.73;7.50;;;8.50;93.90;;;;;;4954774;28;20588;-69
2021/12/03 01:47:01;;;;;;;9.23;6.63;;;8.40;93.90;;;;;;4954664;29;20209;-70
2021/12/03 01:49:29;;;;;;;9.17;6.70;;;8.50;93.80;;;;;;4968525;28;20658;-70
2021/12/03 01:51:56;;;;;;;6.03;4.90;;;8.40;93.60;;;;;;4961495;28;20560;-69
2021/12/03 01:54:23;;;;;;;7.10;4.47;;;8.40;93.70;;;;;;4953439;29;20288;-69
2021/12/03 01:56:51;;;;;;;8.53;5.27;;;8.40;93.60;;;;;;4953297;28;20231;-69
2021/12/03 01:59:18;;;;;;;6.70;4.57;;;8.40;93.60;;;;;;4955476;28;20213;-69
2021/12/03 02:01:45;;;;;;;9.70;5.40;;;8.40;93.70;;;;;;4952751;29;20214;-69
2021/12/03 02:04:13;;;;;;;7.43;4.90;;;8.40;93.80;;;;;;4955183;28;20556;-69
2021/12/03 02:06:40;;;;;;;5.63;4.20;;;8.40;93.80;;;;;;4951520;29;20221;-69
2021/12/03 02:09:08;;;;;;;9.13;5.43;;;8.40;93.90;;;;;;4953649;28;20301;-69
2021/12/03 02:11:36;;;;;;;7.63;4.83;;;8.40;93.90;;;;;;4955198;28;20305;-69
2021/12/03 02:14:05;;;;;;;8.77;4.90;;;8.40;93.80;;;;;;4955389;28;20213;-69
2021/12/03 02:16:34;;;;;;;6.43;4.90;;;8.40;93.80;;;;;;4955061;28;20229;-69
2021/12/03 02:19:01;;;;;;;6.53;5.37;;;8.40;93.80;;;;;;4952365;29;20296;-69
2021/12/03 02:21:29;;;;;;;7.23;5.80;;;8.40;93.70;;;;;;4954904;28;20253;-69
2021/12/03 02:23:56;;;;;;;6.47;5.50;;;8.40;93.70;;;;;;4955285;28;20228;-69
2021/12/03 02:26:24;;;;;;;8.63;5.27;;;8.40;93.70;;;;;;4955073;28;20219;-69
2021/12/03 02:28:52;;;;;;;6.53;4.87;;;8.40;93.70;;;;;;4955392;28;20654;-69
2021/12/03 02:31:22;;;;;;;7.60;5.30;;;8.40;93.70;;;;;;4952290;29;20213;-69
2021/12/03 02:33:50;;;;;;;7.27;5.10;;;8.40;93.80;;;;;;4949893;29;20197;-69
2021/12/03 02:36:18;;;;;;;7.03;4.80;;;8.40;93.90;;;;;;4952545;29;20315;-69
2021/12/03 02:38:47;;;;;;;6.27;4.73;;;8.40;93.90;;;;;;4967535;28;20218;-69
2021/12/03 02:41:14;;;;;;;6.63;4.50;;;8.40;94.00;;;;;;4963802;28;20222;-69
2021/12/03 02:43:43;;;;;;;8.03;5.30;;;8.40;94.00;;;;;;4953250;28;20234;-69
2021/12/03 02:46:10;;;;;;;6.67;5.20;;;8.40;94.00;;;;;;4954630;28;20289;-69
2021/12/03 02:48:38;;;;;;;6.47;4.70;;;8.40;94.00;;;;;;4954092;28;20305;-70
2021/12/03 02:51:07;;;;;;;7.63;5.43;;;8.50;94.00;;;;;;4954929;28;20213;-69
2021/12/03 02:53:35;;;;;;;6.13;4.73;;;8.40;93.80;;;;;;4951701;29;20213;-69
2021/12/03 02:56:04;;;;;;;8.33;5.83;;;8.40;93.70;;;;;;4954675;28;20236;-69
2021/12/03 02:58:32;;;;;;;10.30;5.47;;;8.40;93.70;;;;;;4969788;28;20627;-69
2021/12/03 03:01:01;;;;;;;6.63;4.17;;;8.30;93.60;;;;;;4953203;28;20223;-69
2021/12/03 03:03:28;;;;;;;3.40;2.67;;;8.30;93.50;;;;;;4951987;28;20226;-69
2021/12/03 03:05:58;;;;;;;1.73;1.50;;;8.30;93.40;;;;;;4958532;28;20216;-69
2021/12/03 03:08:27;;;;;;;1.13;0.80;;;8.30;93.50;;;;;;4958950;28;20242;-69
2021/12/03 03:10:56;;;;;;;0.67;0.67;;;8.30;93.50;;;;;;4955402;29;20212;-69
2021/12/03 03:13:23;;;;;;;0.60;0.60;;;8.30;93.20;;;;;;4967364;28;20311;-69
2021/12/03 03:15:52;;;;;;;1.23;0.70;;;8.20;93.10;;;;;;4958679;28;20204;-69
2021/12/03 03:18:23;;;;;;;0.73;0.73;;;8.20;93.20;;;;;;4958820;28;20268;-69
2021/12/03 03:20:52;;;;;;;1.70;0.40;;;8.20;93.10;;;;;;4957235;29;20288;-69
2021/12/03 03:23:21;;;;;;;0.50;0.50;;;8.20;93.20;;;;;;4970732;28;20230;-69
2021/12/03 03:25:49;;;;;;;2.83;0.73;;;8.20;93.10;;;;;;4963116;28;20217;-69
2021/12/03 03:28:19;;;;;;;1.10;1.00;;;8.20;93.20;;;;;;4958945;28;20672;-69
2021/12/03 03:30:49;;;;;;;0.87;0.80;;;8.20;93.20;;;;;;4957475;28;20263;-69
2021/12/03 03:33:16;;;;;;;1.20;1.10;;;8.20;93.20;;;;;;4958444;28;20215;-69
2021/12/03 03:35:44;;;;;;;1.37;0.70;;;8.20;93.20;;;;;;4958065;28;20419;-69
2021/12/03 03:38:13;;;;;;;1.23;0.83;;;8.20;93.30;;;;;;4955868;29;20237;-69
2021/12/03 03:40:41;;;;;;;1.33;1.13;;;8.20;93.30;;;;;;4957986;28;20238;-69
2021/12/03 03:43:09;;;;;;;2.00;1.20;;;8.10;93.30;;;;;;4958239;28;20634;-69
2021/12/03 03:45:38;;;;;;;2.17;1.60;;;8.10;93.40;;;;;;4956838;29;20275;-69
2021/12/03 03:48:05;;;;;;;3.43;2.13;;;8.10;93.60;;;;;;4957349;29;20210;-69
2021/12/03 03:50:33;;;;;;;2.00;1.80;;;8.00;93.60;;;;;;4955562;29;20618;-69
2021/12/03 03:53:01;;;;;;;2.40;2.13;;;8.00;93.70;;;;;;4957265;29;20623;-69
2021/12/03 03:55:29;;;;;;;2.13;1.83;;;8.00;93.90;;;;;;4957604;28;20219;-69
2021/12/03 03:57:58;;;;;;;1.97;1.87;;;7.90;93.90;;;;;;4957000;28;20208;-69
2021/12/03 04:00:30;;;;;;;2.97;2.13;;;7.90;94.00;;;;;;4970446;28;20327;-69
2021/12/03 04:02:57;;;;;;;2.63;2.20;;;7.80;94.10;;;;;;4957798;28;20217;-69
2021/12/03 04:05:25;;;;;;;1.80;1.70;;;7.80;94.10;;;;;;4953897;28;20214;-69
2021/12/03 04:07:53;;;;;;;1.90;1.70;;;7.80;94.20;;;;;;4962735;28;20214;-69
2021/12/03 04:10:20;;;;;;;3.10;2.00;;;7.80;94.30;;;;;;4956785;28;20223;-69
2021/12/03 04:12:48;;;;;;;3.47;1.73;;;7.80;94.40;;;;;;4957512;29;20237;-69
2021/12/03 04:15:16;;;;;;;2.13;1.93;;;7.70;94.30;;;;;;4966406;28;20217;-69
2021/12/03 04:17:43;;;;;;;3.07;1.90;;;7.70;94.30;;;;;;4957382;28;20309;-69
2021/12/03 04:20:13;;;;;;;2.90;2.17;;;7.70;94.40;;;;;;4956614;29;20250;-69
2021/12/03 04:22:42;;;;;;;2.40;2.13;;;7.70;94.40;;;;;;4956022;29;20263;-69
2021/12/03 04:25:14;;;;;;;2.50;2.30;;;7.70;94.30;;;;;;4957393;28;20240;-69
2021/12/03 04:27:41;;;;;;;2.80;2.60;;;7.70;94.30;;;;;;4957306;28;20204;-69
2021/12/03 04:30:14;;;;;;;3.10;2.70;;;7.70;94.30;;;;;;4956175;29;20197;-69
2021/12/03 04:32:42;;;;;;;4.70;3.13;;;7.80;94.30;;;;;;4969824;28;20221;-69
2021/12/03 04:35:10;;;;;;;4.23;3.60;;;7.80;94.20;;;;;;4957415;28;20295;-69
2021/12/03 04:37:38;;;;;;;5.37;3.97;;;7.80;94.10;;;;;;4956217;29;20229;-69
2021/12/03 04:40:07;;;;;;;4.90;4.40;;;7.80;94.10;;;;;;4954699;28;20244;-69
2021/12/03 04:42:35;;;;;;;4.40;4.00;;;7.80;94.10;;;;;;4956249;29;20255;-69
2021/12/03 04:45:05;;;;;;;3.80;3.40;;;7.80;94.10;;;;;;4954061;29;20676;-69
2021/12/03 04:47:32;;;;;;;6.77;4.50;;;7.80;94.10;;;;;;4964419;28;20232;-69
2021/12/03 04:49:59;;;;;;;4.30;3.63;;;7.80;94.10;;;;;;4957272;28;20311;-69
2021/12/03 04:52:27;;;;;;;4.17;3.77;;;7.80;94.10;;;;;;4971406;28;20743;-69
2021/12/03 04:54:54;;;;;;;3.87;3.40;;;7.80;94.20;;;;;;4957314;28;20254;-69
2021/12/03 04:57:22;;;;;;;3.43;3.13;;;7.80;94.30;;;;;;4956002;29;20206;-69
2021/12/03 04:59:49;;;;;;;3.87;3.53;;;7.80;94.30;;;;;;4954858;28;20211;-69
2021/12/03 05:02:19;;;;;;;4.63;3.17;;;7.80;94.30;;;;;;4956307;29;20240;-69
2021/12/03 05:04:48;;;;;;;4.90;3.57;;;7.80;94.30;;;;;;4956942;28;20224;-69
2021/12/03 05:09:43;;;;;;;4.47;3.67;;;7.80;94.20;;;;;;4970143;28;20233;-69
2021/12/03 05:12:10;;;;;;;5.07;3.83;;;7.80;94.20;;;;;;4955735;28;20765;-69
2021/12/03 05:14:38;;;;;;;5.57;4.50;;;7.80;94.20;;;;;;4957232;28;20254;-69
2021/12/03 05:17:05;;;;;;;3.70;3.30;;;7.80;94.10;;;;;;4954336;29;20246;-69
2021/12/03 05:19:32;;;;;;;5.87;3.90;;;7.80;94.10;;;;;;4957006;28;20212;-70
2021/12/03 05:22:00;;;;;;;4.23;3.67;;;7.80;94.20;;;;;;4953793;29;20741;-69
2021/12/03 05:24:30;;;;;;;4.00;3.60;;;7.80;94.20;;;;;;4957697;28;20279;-69
2021/12/03 05:26:57;;;;;;;4.40;4.00;;;7.70;94.10;;;;;;4955786;28;20251;-69
2021/12/03 05:29:24;;;;;;;5.13;4.63;;;7.70;94.10;;;;;;4955198;28;20316;-69
2021/12/03 05:31:52;;;;;;;7.47;5.80;;;7.70;94.20;;;;;;4951198;28;20227;-69
2021/12/03 05:34:28;;;;;;;10.13;6.77;;;7.70;94.20;;;;;;4954952;29;20604;-69
2021/12/03 05:36:56;;;;;;;8.33;7.53;;;7.80;94.10;;;;;;4955217;28;20645;-69
2021/12/03 05:39:23;;;;;;;10.87;8.47;;;7.80;94.20;;;;;;4964147;28;20638;-69
2021/12/03 05:41:51;;;;;;;15.17;7.33;;;7.80;94.20;;;;;;4946691;28;20315;-69
2021/12/03 05:44:18;;;;;;;7.83;7.03;;;7.80;94.20;;;;;;4951868;28;20692;-69
2021/12/03 05:46:45;;;;;;;6.30;5.70;;;7.80;94.20;;;;;;4956165;28;20205;-69
2021/12/03 05:49:13;;;;;;;6.80;5.50;;;7.80;94.10;;;;;;4956774;28;20213;-69
2021/12/03 05:51:41;;;;;;;8.83;5.60;;;7.80;94.00;;;;;;4955712;28;20209;-69
2021/12/03 05:54:09;;;;;;;6.23;5.63;;;7.80;94.00;;;;;;4965791;28;20247;-69
2021/12/03 05:56:36;;;;;;;6.30;5.50;;;7.80;94.00;;;;;;4955494;29;20219;-69
2021/12/03 05:59:04;;;;;;;5.40;4.57;;;7.80;93.90;;;;;;4955097;29;20287;-69
2021/12/03 06:01:31;;;;;;;5.73;5.13;;;7.80;93.90;;;;;;4953384;28;20297;-69
2021/12/03 06:03:59;;;;;;;5.63;5.03;;;7.80;93.90;;;;;;4955660;28;20236;-69
2021/12/03 06:06:26;;;;;;;6.40;5.47;;;7.90;93.90;;;;;;4938475;29;20202;-69
2021/12/03 06:08:54;;;;;;;5.23;4.60;;;7.90;93.90;;;;;;4961530;28;20302;-69
2021/12/03 06:11:21;;;;;;;4.70;4.10;;;7.90;93.80;;;;;;4955300;28;20216;-69
2021/12/03 06:13:48;;;;;;;5.40;4.90;;;8.00;93.70;;;;;;4955992;28;20198;-69
2021/12/03 06:16:16;;;;;;;6.07;4.03;;;8.00;93.60;;;;;;4965045;28;20746;-70
2021/12/03 06:18:43;;;;;;;4.70;4.30;;;8.00;93.50;;;;;;4955822;28;20284;-69
2021/12/03 06:21:14;;;;;;;4.60;4.20;;;8.10;93.50;;;;;;4952550;29;20265;-69
2021/12/03 06:23:42;;;;;;;8.77;4.00;;;8.10;93.30;;;;;;4954856;28;20558;-69
2021/12/03 06:26:10;;;;;;;4.70;4.20;;;8.10;93.00;;;;;;4938175;29;20643;-69
2021/12/03 06:28:39;;;;;;;6.87;5.00;;;8.10;92.70;;;;;;4955897;28;20201;-68
2021/12/03 06:31:08;;;;;;;4.50;3.57;;;8.10;92.50;;;;;;4953941;29;20538;-69
2021/12/03 06:33:35;;;;;;;3.47;3.13;;;8.10;92.40;;;;;;4953924;29;20749;-69
2021/12/03 06:36:03;;;;;;;4.03;3.23;;;8.20;92.40;;;;;;4955171;28;20296;-69
2021/12/03 06:38:31;;;;;;;4.60;2.40;;;8.20;92.20;;;;;;4954412;29;20662;-69
2021/12/03 06:40:59;;;;;;;4.10;3.17;;;8.20;92.00;;;;;;4938075;29;20385;-69
2021/12/03 06:43:27;;;;;;;4.80;3.00;;;8.10;91.80;;;;;;4955295;28;20303;-68
2021/12/03 06:45:54;;;;;;;2.57;2.23;;;8.10;91.80;;;;;;4954989;28;20340;-68
2021/12/03 06:48:22;;;;;;;2.37;2.10;;;8.10;91.90;;;;;;4955650;28;20588;-68
2021/12/03 06:50:51;;;;;;;3.53;1.70;;;8.10;91.90;;;;;;4954190;29;20255;-68
2021/12/03 06:53:23;;;;;;;2.90;2.10;;;8.10;91.90;;;;;;4953823;29;20224;-69
2021/12/03 06:55:54;;;;;;;3.20;2.17;;;8.10;91.80;;;;;;4952888;29;20669;-69
2021/12/03 06:58:22;;;;;;;2.27;2.03;;;8.10;91.80;;;;;;4965594;28;20316;-69
2021/12/03 07:00:53;;;;;;;4.40;2.67;;;8.10;91.80;;;;;;4965664;28;20236;-69
2021/12/03 07:03:21;;;;;;;3.10;2.80;;;8.10;91.90;;;;;;4952782;28;20212;-69
2021/12/03 07:05:49;;;;;;;5.27;3.87;;;8.10;92.00;;;;;;4954808;28;20522;-69
2021/12/03 07:08:17;;;;;;;6.23;5.10;;;8.10;92.00;;;;;;4954353;29;20211;-69
2021/12/03 07:10:44;;;;;;;4.77;4.00;;;8.10;92.10;;;;;;4953869;29;20217;-69
2021/12/03 07:13:11;;;;;;;5.40;4.33;;;8.10;92.10;;;;;;4954266;29;20204;-69
2021/12/03 07:15:39;;;;;;;4.23;3.27;;;8.20;92.20;;;;;;4953730;29;20292;-69
2021/12/03 07:18:07;;;;;;;6.40;3.17;;;8.20;92.30;;;;;;4955251;28;20297;-69
2021/12/03 07:20:34;;;;;;;3.20;2.50;;;8.20;92.30;;;;;;4954702;28;20276;-69
2021/12/03 07:23:02;;;;;;;3.97;2.37;;;8.20;92.30;;;;;;4961574;28;20622;-69
2021/12/03 07:25:29;;;;;;;2.17;2.07;;;8.20;92.30;;;;;;4953321;29;20295;-69
2021/12/03 07:27:57;;;;;;;3.23;2.33;;;8.20;92.40;;;;;;4954766;28;20209;-69
2021/12/03 07:30:30;;;;;;;2.23;1.77;;;8.30;92.50;;;;;;4962872;28;20609;-69
2021/12/03 07:32:58;;;;;;;4.60;2.33;;;8.30;92.80;;;;;;4954036;29;20200;-69
2021/12/03 07:35:25;;;;;;;1.93;1.70;;;8.30;92.50;;;;;;4967565;28;20219;-69
2021/12/03 07:37:53;;;;;;;2.40;2.20;;;8.40;92.50;;;;;;4954931;28;20213;-69
2021/12/03 07:40:20;;;;;;;3.33;2.00;;;8.40;92.50;;;;;;4954408;28;20210;-69
2021/12/03 07:42:48;;;;;;;2.60;2.40;;;8.40;92.50;;;;;;4960188;28;20221;-69
2021/12/03 07:45:16;;;;;;;3.40;2.67;;;8.40;92.50;;;;;;4950963;28;20690;-69
2021/12/03 07:47:44;;;;;;;4.37;2.90;;;8.50;92.50;;;;;;4955291;28;20609;-69
2021/12/03 07:50:13;;;;;;;3.33;2.90;;;8.50;92.50;;;;;;4955617;28;20240;-69
2021/12/03 07:52:41;;;;;;;5.20;3.33;;;8.50;92.40;;;;;;4956940;29;20251;-69
2021/12/03 07:55:09;;;;;;;5.50;3.37;;;8.50;92.40;;;;;;4956464;29;20224;-69
2021/12/03 07:57:36;;;;;;;3.93;3.40;;;8.50;92.30;;;;;;4957181;29;20248;-69
2021/12/03 08:00:06;;;;;;;6.20;3.70;;;8.60;92.30;;;;;;4957306;28;20636;-68
2021/12/03 08:02:43;;;;;;;3.80;3.33;;;8.60;92.30;;;;;;4955980;29;20240;-68
2021/12/03 08:05:10;;;;;;;3.87;3.57;;;8.60;92.20;;;;;;4955816;29;20233;-68
2021/12/03 08:07:39;;;;;;;4.23;3.80;;;8.60;92.20;;;;;;4957856;28;20288;-68
2021/12/03 08:10:07;;;;;;;5.27;3.77;;;8.60;92.20;;;;;;4955588;29;20221;-68
2021/12/03 08:12:34;;;;;;;5.80;4.97;;;8.70;92.00;;;;;;4957569;28;20212;-68
2021/12/03 08:15:04;;;;;;;6.27;4.90;;;8.70;91.90;;;;;;4956833;29;20238;-68
2021/12/03 08:17:31;;;;;;;9.77;5.43;;;8.70;91.90;;;;;;4957622;28;20564;-68
2021/12/03 08:20:00;;;;;;;7.40;6.60;;;8.70;91.90;;;;;;4957662;29;20326;-68
2021/12/03 08:22:27;;;;;;;9.97;5.40;;;8.70;92.00;;;;;;4968598;28;20650;-68
2021/12/03 08:24:55;;;;;;;5.67;4.53;;;8.70;92.00;;;;;;4965082;28;20233;-68
2021/12/03 08:27:23;;;;;;;8.87;6.93;;;8.70;92.10;;;;;;4957152;28;20240;-68
2021/12/03 08:29:50;;;;;;;9.93;7.97;;;8.70;92.10;;;;;;4957633;28;20296;-68
2021/12/03 08:32:17;;;;;;;9.87;7.73;;;8.70;92.10;;;;;;4955874;29;20205;-68
2021/12/03 08:34:45;;;;;;;9.20;6.77;;;8.80;92.10;;;;;;4955095;29;20292;-68
2021/12/03 08:37:12;;;;;;;8.77;6.67;;;8.80;92.10;;;;;;4953926;29;20248;-68
2021/12/03 08:39:40;;;;;;;7.60;6.80;;;8.80;92.10;;;;;;4957791;28;20252;-68
2021/12/03 08:42:10;;;;;;;8.63;6.33;;;8.80;92.10;;;;;;4956621;29;20205;-69
2021/12/03 08:44:38;;;;;;;9.03;6.57;;;8.80;92.10;;;;;;4956349;29;20309;-69
2021/12/03 08:47:06;;;;;;;8.63;6.47;;;8.80;92.10;;;;;;4955866;29;20682;-69
2021/12/03 08:54:53;;;;;;;7.37;5.93;;;8.80;92.00;;;;;;4957202;28;20301;-69
2021/12/03 08:57:23;;;;;;;7.27;6.23;;;8.90;92.10;;;;;;4971434;28;20218;-69
2021/12/03 08:59:59;;;;;;;7.67;5.47;;;8.80;92.00;;;;;;4954845;28;20654;-69
2021/12/03 09:02:27;;;;;;;6.33;5.10;;;8.80;92.10;;;;;;4953739;28;20289;-69
2021/12/03 09:04:54;;;;;;;5.87;4.87;;;8.80;92.10;;;;;;4945345;29;20628;-69
2021/12/03 09:07:21;;;;;;;6.07;4.80;;;8.90;92.40;;;;;;4954295;29;20294;-69
2021/12/03 09:09:49;;;;;;;5.97;4.27;;;8.90;92.10;;;;;;4956876;28;20293;-68
2021/12/03 09:12:16;;;;;;;5.50;4.97;;;8.90;92.10;;;;;;4956546;28;20276;-69
2021/12/03 09:14:51;;;;;;;7.20;5.33;;;8.90;92.10;;;;;;4953889;28;20221;-69
2021/12/03 09:19:56;;;;;;;7.53;5.43;;;9.00;92.10;;;;;;4956655;28;20643;-68
2021/12/03 09:22:33;;;;;;;7.23;5.67;;;9.00;92.10;;;;;;4955289;29;20247;-68
2021/12/03 09:25:01;;;;;;;7.53;6.00;;;9.00;92.10;;;;;;4956373;28;20736;-69
2021/12/03 09:27:29;;;;;;;9.77;7.00;;;9.00;92.10;;;;;;4956343;28;20317;-69
2021/12/03 09:29:57;;;;;;;11.17;8.07;;;9.10;92.20;;;;;;4955428;28;20326;-69
2021/12/03 09:32:29;;;;;;;9.70;7.67;;;9.10;92.20;;;;;;4957108;28;20204;-69
2021/12/03 09:34:58;;;;;;;11.07;7.87;;;9.10;92.20;;;;;;4955231;28;20276;-69
2021/12/03 09:37:26;;;;;;;8.17;6.30;;;9.20;92.20;;;;;;4955626;29;20212;-69
2021/12/03 09:39:55;;;;;;;6.73;6.07;;;9.20;92.20;;;;;;4956382;28;20222;-69
2021/12/03 09:42:23;;;;;;;10.13;6.73;;;9.20;92.10;;;;;;4955139;29;20212;-69
2021/12/03 09:44:51;;;;;;;9.20;6.83;;;9.30;92.10;;;;;;4955306;28;20214;-69
2021/12/03 09:47:20;;;;;;;8.80;7.07;;;9.30;92.00;;;;;;4955779;28;20284;-69
2021/12/03 09:49:54;;;;;;;11.13;7.33;;;9.30;92.10;;;;;;4953328;29;20634;-69
2021/12/03 09:52:30;;;;;;;8.53;7.63;;;9.30;92.10;;;;;;4954719;29;20592;-69
2021/12/03 09:55:02;;;;;;;8.33;7.40;;;9.40;92.10;;;;;;4954519;29;20216;-68
2021/12/03 10:13:39;;;;;;;10.03;9.03;;;9.80;91.40;;;;;;4954419;28;20251;-68
2021/12/03 10:18:58;;;;;;;11.30;9.90;;;9.90;91.30;;;;;;4954439;29;20210;-68
2021/12/03 10:29:43;;;;;;;12.20;10.13;;;10.20;91.10;;;;;;4954480;29;20209;-68
2021/12/03 10:38:16;;;;;;;10.93;9.57;;;10.40;90.70;;;;;;4952939;29;20665;-68
2021/12/03 10:52:25;;;;;;;10.03;9.03;;;10.50;90.30;;;;;;4953010;29;20216;-68
2021/12/03 11:00:46;;;;;;;11.07;9.27;;;10.50;90.20;;;;;;4952455;29;20645;-68
2021/12/03 11:03:56;;;;;;;11.23;9.83;;;10.50;90.20;;;;;;4955989;28;20280;-68
2021/12/03 11:31:51;;;;;;;17.87;9.90;;;10.40;89.80;;;;;;4957039;28;20287;-68
2021/12/03 11:49:27;;;;;;;14.03;12.20;;;10.30;90.10;;;;;;4958569;28;20285;-68
2021/12/03 12:00:53;;;;;;;18.53;13.33;;;10.40;90.20;;;;;;4957483;28;20201;-69
2021/12/03 12:10:30;;;;;;;15.77;13.97;;;10.60;90.30;;;;;;4958443;28;20207;-68
2021/12/03 14:38:14;;;;;;;15.63;13.70;;;10.80;88.80;;;;;;4954963;29;20210;-69
2021/12/03 14:57:12;;;;;;;18.57;14.30;;;10.60;88.90;;;;;;4957293;28;20618;-69
2021/12/03 14:59:56;;;;;;;18.77;15.10;;;10.60;89.10;;;;;;4953464;28;20230;-69
2021/12/03 15:05:07;;;;;;;19.83;14.53;;;10.60;89.30;;;;;;4955030;28;20646;-69
2021/12/03 15:07:45;;;;;;;18.83;14.83;;;10.50;89.40;;;;;;4947052;29;20272;-69
2021/12/03 15:10:21;;;;;;;16.30;13.30;;;10.50;89.60;;;;;;4954588;29;20619;-69
2021/12/03 15:25:50;;;;;;;18.70;14.63;;;10.20;90.10;;;;;;4953315;28;20817;-70
2021/12/03 15:30:57;;;;;;;16.27;13.73;;;10.20;90.20;;;;;;4953351;28;20706;-70
2021/12/03 15:33:44;;;;;;;18.20;15.27;;;10.10;90.30;;;;;;4954809;29;20306;-70
2021/12/03 15:36:27;;;;;;;20.97;15.03;;;10.10;90.30;;;;;;4954675;29;20309;-70
2021/12/03 15:39:08;;;;;;;16.57;12.70;;;10.10;90.40;;;;;;4954894;28;20212;-70
2021/12/03 15:51:54;;;;;;;16.43;13.83;;;10.00;90.40;;;;;;4953921;29;20643;-70
2021/12/03 16:04:11;;;;;;;17.53;14.07;;;9.60;90.50;;;;;;4951699;29;20221;-70
2021/12/03 16:22:48;;;;;;;16.70;13.10;;;9.00;90.90;;;;;;4956459;28;20756;-70
2021/12/03 16:54:17;;;;;;;23.57;15.67;;;8.40;91.70;;;;;;4953377;29;20271;-70
2021/12/03 16:56:47;;;;;;;18.67;14.13;;;8.30;91.70;;;;;;4952743;29;20757;-70
2021/12/03 16:59:14;;;;;;;18.60;13.50;;;8.30;91.80;;;;;;4957249;28;20300;-70
2021/12/03 17:19:31;;;;;;;28.77;17.90;;;8.00;91.60;;;;;;4955847;28;20301;-70
2021/12/03 17:54:22;;;;;;;22.80;15.07;;;7.60;91.70;;;;;;4951090;29;20223;-70
2021/12/03 17:56:52;;;;;;;21.60;15.90;;;7.60;91.70;;;;;;4951139;29;20610;-70
2021/12/03 17:59:24;;;;;;;21.40;16.30;;;7.60;91.60;;;;;;4955971;29;20299;-70
2021/12/03 18:02:06;;;;;;;16.93;14.37;;;7.50;91.70;;;;;;4955431;28;20212;-70
2021/12/03 18:51:18;;;;;;;20.37;15.20;;;7.00;91.90;;;;;;4952700;28;20320;-70
2021/12/03 18:56:17;;;;;;;21.77;16.60;;;7.00;92.10;;;;;;4954946;29;20213;-70
2021/12/03 18:58:46;;;;;;;17.10;12.30;;;6.90;92.10;;;;;;4964314;28;20275;-70
2021/12/03 19:01:14;;;;;;;14.43;11.70;;;6.90;92.10;;;;;;4953340;29;20255;-70
2021/12/03 19:06:31;;;;;;;25.80;16.63;;;6.80;92.10;;;;;;4951809;29;20224;-70
2021/12/03 19:09:15;;;;;;;26.87;18.60;;;6.80;92.10;;;;;;4954717;29;20312;-70
2021/12/03 19:14:20;;;;;;;24.57;17.50;;;6.80;92.30;;;;;;4951607;29;20237;-70
2021/12/03 19:16:48;;;;;;;28.73;20.10;;;6.80;92.30;;;;;;4954586;28;20212;-70
2021/12/03 19:19:16;;;;;;;23.17;17.40;;;6.70;92.40;;;;;;4954987;28;20635;-70
2021/12/03 19:21:45;;;;;;;25.90;17.23;;;6.70;92.50;;;;;;4955115;29;20732;-70
2021/12/03 19:24:15;;;;;;;25.47;19.03;;;6.80;92.50;;;;;;4954765;28;20234;-70
2021/12/03 19:26:43;;;;;;;24.97;17.10;;;6.70;92.40;;;;;;4954612;28;20221;-70
2021/12/03 19:29:17;;;;;;;24.67;16.57;;;6.70;92.30;;;;;;4970523;28;20311;-70
2021/12/03 19:31:50;;;;;;;19.80;15.33;;;6.70;92.30;;;;;;4953458;28;20550;-70
2021/12/03 19:34:23;;;;;;;23.00;14.60;;;6.60;92.10;;;;;;4954565;29;20533;-70
2021/12/03 19:36:52;;;;;;;21.57;15.97;;;6.60;91.90;;;;;;4954800;28;20201;-70
2021/12/03 19:39:20;;;;;;;20.33;15.13;;;6.50;91.80;;;;;;4954453;29;20276;-70
2021/12/03 19:44:51;;;;;;;18.60;14.47;;;6.40;91.90;;;;;;4965697;28;20217;-70
2021/12/03 19:47:14;;;;;;;18.93;14.17;;;6.40;92.00;;;;;;4956385;28;20641;-70
2021/12/03 19:49:50;;;;;;;22.37;15.47;;;6.40;92.00;;;;;;4965760;28;20633;-70
2021/12/03 19:54:48;;;;;;;23.37;15.40;;;6.40;91.90;;;;;;4958340;29;20208;-70
2021/12/03 19:57:16;;;;;;;20.10;14.80;;;6.30;91.90;;;;;;4957539;29;20215;-70
2021/12/03 19:59:43;;;;;;;21.30;15.53;;;6.30;91.90;;;;;;4940139;29;20307;-70
2021/12/03 20:02:12;;;;;;;26.80;15.33;;;6.30;91.90;;;;;;4957621;28;20210;-70
2021/12/03 20:04:39;;;;;;;26.03;17.00;;;6.20;91.80;;;;;;4957075;29;20247;-70
2021/12/03 20:07:07;;;;;;;23.43;16.50;;;6.20;92.00;;;;;;4957173;28;20308;-70
2021/12/03 20:09:46;;;;;;;50.30;16.77;;;6.30;92.20;;;;;;4956047;29;20212;-70
2021/12/03 20:12:20;;;;;;;19.73;14.47;;;6.20;92.20;;;;;;4955397;29;20519;-70
2021/12/03 20:14:49;;;;;;;16.40;13.53;;;6.20;91.70;;;;;;4957758;29;20216;-70
2021/12/03 20:17:40;;;;;;;25.50;17.63;;;6.10;91.30;;;;;;4948876;28;20624;-70
2021/12/03 20:20:09;;;;;;;18.20;14.10;;;6.00;91.30;;;;;;4955677;28;20222;-70
2021/12/03 20:22:44;;;;;;;36.43;22.37;;;5.90;91.60;;;;;;4952918;28;20279;-70
2021/12/03 20:28:01;;;;;;;30.47;21.23;;;6.00;92.20;;;;;;4956524;28;20273;-70
2021/12/03 20:30:46;;;;;;;24.07;16.17;;;6.00;92.40;;;;;;4956722;28;20223;-70
2021/12/03 20:38:32;;;;;;;26.97;20.30;;;5.90;92.50;;;;;;4955186;28;20282;-70
2021/12/03 20:41:02;;;;;;;19.80;15.23;;;6.00;92.60;;;;;;4950606;29;20279;-70
2021/12/03 21:09:31;;;;;;;20.23;14.37;;;5.60;91.80;;;;;;4956147;28;20240;-70
2021/12/03 21:11:59;;;;;;;23.87;17.07;;;5.60;92.00;;;;;;4955558;28;20211;-70
2021/12/03 21:14:30;;;;;;;22.23;16.90;;;5.60;92.00;;;;;;4951921;28;20216;-70
2021/12/03 21:22:05;;;;;;;22.33;17.13;;;5.50;92.00;;;;;;4952832;29;20317;-70
2021/12/03 21:24:36;;;;;;;17.67;15.33;;;5.50;92.20;;;;;;4954360;29;20250;-70
2021/12/03 21:27:10;;;;;;;20.80;15.30;;;5.50;92.20;;;;;;4955353;28;20291;-70
2021/12/03 21:42:58;;;;;;;27.30;16.87;;;5.30;92.10;;;;;;4954161;29;20205;-69
2021/12/03 21:45:26;;;;;;;23.07;16.93;;;5.30;92.10;;;;;;4944789;28;20246;-69